Spokane International Airport
KGEG : now visible

Airfield :











YOU CAN JOIN US ON...

 
LOGIN :

Register | Disclaimer

   EN    FR    IT 

 









Legend :    VFR   Marginal VFR   IFR   Intensive IFR   Very Intensive IFR
Visi :
Ceiling :
>= 8 km
>= 3000ft
5 to 8 km
1000 to 3000 ft
1500m to 5 km
500 to 1000 ft
800 to 1500m
200 to 500 ft
< 800m
< 200 ft
Symbols :   Thunderstorms  Fog  Heavy snow  Heavy precipitations  Wind > 20 kt






- Airport Elevation : 2376 ft
- IATA code : GEG


KGEG - Spokane International

CURRENT METAR :
  • 121453Z 22016KT 10SM FEW070 FEW170 BKN240 14/07 A3005 RMK AO2 SLP162 T01440072 51009

EXPIRED METARs :
  • 121353Z 21014KT 10SM FEW070 FEW170 BKN250 13/07 A3005 RMK AO2 SLP161 T01330067
  • 121253Z 20012KT 10SM FEW090 FEW120 SCT170 BKN250 13/06 A3003 RMK AO2 SLP155 ACSL E T01330061
  • 121153Z 21012KT 10SM FEW065 FEW120 SCT170 BKN220 14/06 A3002 RMK AO2 SLP149 T01390061 10211 20133 53011

TAF KGEG
Valid from the 12 at 12:00 until the 13 at 12:00 UTC


121124Z 1212/1312 22012KT P6SM BKN250
FM121500 21013G23KT P6SM BKN250
FM121800 22017G24KT P6SM FEW060 BKN250
FM130300 25012KT P6SM SKC
FM130600 24007KT P6SM SKC
KZSE FIR / North America



MET'MAP, your aeronautical weather chart ! - Copyright ORBIFLY December 2007 - Disclaimer

ORBIFLY MET'MAP TEAM :

Programming & Development : Alexandra Zaïnal
Concept & original design : Baudouin d'Aumeries
Assistance for programming : Marc-Olivier Méhu
Technical & hardware support : Manuel Goepfert

Contact : metmap@orbifly.com




SOURCES & CREDITS :

   NOAA       Earth
Advisory